Aérodrome :
LOGIN :

S'inscrire | Disclaimer

   EN    FR    IT 

 










Légende :    VFR   VFR Marginal   IFR   IFR Intensif   IFR Très Intensif
Visi : 
Plafond : 
>= 8 km
>= 3000ft
5 à 8 km
1000 à 3000 ft
1500m à 5 km
500 à 1000 ft
800 à 1500m
200 à 500 ft
< 800m
< 200 ft
Symboles :   Orages  Brouillard  Fortes neiges  Fortes précipitations  Vent > 20 kt
SIGMETs :   Divers  Orages  Givrage  Turbulence  Onde Orograph.  Cendres Volcan.






- Altitude de l'aérodrome : 273 ft


EGXT - RAF Wittering Stamford

DERNIER METAR :
  • 151250Z 01010KT 9999 FEW024 SCT050 BKN100 08/06 Q1005 RMK BLU

METARs EXPIRÉS :
  • 151150Z 01011KT 9999 FEW048 BKN110 08/06 Q1005 BLU
  • 151119Z 01011KT 9999 FEW020 BKN110 08/06 Q1005 RMK BLU
  • 151050Z 36012KT 9999 FEW020 BKN110 BKN150 08/06 Q1005 RMK BLU
  • 151020Z 01011KT 9999 FEW024 BKN110 07/06 Q1005 RMK BLU
  • 150950Z 01012KT 9999 FEW034 BKN120 07/06 Q1006 RMK BLU

TAF TAF EGXT
Valide du 15 à 12h jusqu'au 15 à 18h UTC


151025Z 1512/1518 01010KT 9999 BKN030
BECMG 1512/1514 02015G25KT
PROB30
TEMPO 1512/1515 SCT018
BECMG 1515/1518 BKN018
TEMPO 1516/1518 5000 RA BKN012



MET'MAP, la Météo Aéronautique d'un coup d'oeil ! - Copyright ORBIFLY Décembre 2007 - Disclaimer

ORBIFLY MET'MAP TEAM :

Programmation & Développement : Alexandra Zaïnal
Conception & Développement : Baudouin d'Aumeries
Co-Programmation & Développement : Marc-Olivier Méhu
Soutien technique & logistique : Manuel Goepfert

Contact : metmap@orbifly.com




SOURCES & CREDITS :

   NOAA